Belgrade, Minnesota
Current Conditions -  °F | °C
As of 8:54 PM on Tuesday 21 Oct 2014 (Local Time) from KPEX Reporting Station
Clear Clear  
Wind Chill: 44°   Ceiling: Unl
Heat Index: 49°   Visibility: 10mi
Dew Point: 40°   Wind: 14mph
Humidity: 70%   Direction: 80°E
Pressure: 30.09"   Gusts: 17mph
Location:  45.45°N, 95°W
Report Text: KPEX 220154Z AUTO 08012G15KT 10SM CLR 10/04 A3009 RMK AO2 T00960043
Loading
Personal Weather Stations






























Interactive Weather Map
Tropical Storm Tracking
New forecast layout! Learn more

10-Day Weather Forecast

Advertisements
Track Severe Weather on mobile